Time;durP1;ratioP1;P1;durP2;ratioP2;P2;SDS_P1;SDS_P2;PMS_P1;PMS_P2;Temp;Humidity;BMP_temperature;BMP_pressure;BME280_temperature;BME280_humidity;BME280_pressure;Samples;Min_cycle;Max_cycle;Signal;HPM_P1;HPM_P2
2022/11/05 00:09:28;;;;;;;11.25;7.57;;;7.40;99.90;;;;;;4967395;28;20073;-84
2022/11/05 00:17:22;;;;;;;12.55;8.38;;;7.40;99.90;;;;;;4951022;28;20042;-85
2022/11/05 00:19:48;;;;;;;15.85;8.20;;;7.50;99.90;;;;;;4949954;28;20482;-83
2022/11/05 00:25:13;;;;;;;19.60;11.15;;;7.50;99.90;;;;;;4947051;28;20037;-82
2022/11/05 00:27:43;;;;;;;19.75;10.68;;;7.30;99.90;;;;;;4953149;28;20120;-83
2022/11/05 00:30:09;;;;;;;15.18;8.18;;;7.30;99.90;;;;;;4948126;28;20393;-83
2022/11/05 00:32:35;;;;;;;23.40;12.35;;;7.30;99.90;;;;;;4952014;28;20031;-83
2022/11/05 00:35:01;;;;;;;14.05;9.13;;;7.10;99.90;;;;;;4935781;28;20536;-83
2022/11/05 00:37:27;;;;;;;16.17;10.60;;;7.10;99.90;;;;;;4950933;28;20046;-82
2022/11/05 00:39:52;;;;;;;16.45;9.15;;;7.10;99.90;;;;;;4952947;28;20109;-83
2022/11/05 00:45:03;;;;;;;21.85;12.02;;;7.00;99.90;;;;;;4962640;28;20034;-84
2022/11/05 00:50:13;;;;;;;17.52;10.98;;;6.80;99.90;;;;;;4952811;28;20035;-84
2022/11/05 00:55:34;;;;;;;23.25;9.68;;;6.90;99.90;;;;;;4951471;28;20034;-85
2022/11/05 00:58:01;;;;;;;10.40;7.05;;;7.00;99.90;;;;;;4961727;28;20118;-84
2022/11/05 01:00:28;;;;;;;17.25;9.52;;;7.00;99.90;;;;;;4948261;28;20054;-84
2022/11/05 01:02:56;;;;;;;22.52;11.05;;;7.00;99.90;;;;;;4936275;28;20042;-84
2022/11/05 01:05:22;;;;;;;19.85;11.20;;;6.80;99.90;;;;;;4976159;28;20035;-84
2022/11/05 01:07:47;;;;;;;16.55;9.07;;;6.70;99.90;;;;;;4964943;28;20043;-84
2022/11/05 01:10:13;;;;;;;17.23;9.10;;;6.70;99.90;;;;;;4962235;28;20518;-85
2022/11/05 01:12:38;;;;;;;17.88;8.55;;;6.70;99.90;;;;;;4968612;28;20046;-84
2022/11/05 01:15:05;;;;;;;21.77;10.95;;;6.80;99.90;;;;;;4963548;28;20038;-83
2022/11/05 01:17:30;;;;;;;11.85;7.50;;;6.70;99.90;;;;;;4948773;28;20032;-84
2022/11/05 01:19:56;;;;;;;17.27;11.52;;;6.70;99.90;;;;;;4936597;28;20038;-83
2022/11/05 01:22:21;;;;;;;16.75;8.23;;;6.70;99.90;;;;;;4970631;28;20027;-84
2022/11/05 01:24:47;;;;;;;11.50;8.13;;;6.70;99.90;;;;;;4939135;28;20027;-84
2022/11/05 01:27:13;;;;;;;15.38;8.25;;;6.80;99.90;;;;;;4952373;28;20385;-84
2022/11/05 01:29:38;;;;;;;13.93;8.85;;;6.90;99.90;;;;;;4963889;28;20034;-84
2022/11/05 01:32:04;;;;;;;14.75;8.75;;;7.00;99.90;;;;;;4952430;28;20027;-84
2022/11/05 01:34:29;;;;;;;13.63;7.90;;;6.90;99.90;;;;;;4949276;28;20023;-80
2022/11/05 01:36:55;;;;;;;14.75;8.77;;;6.90;99.90;;;;;;4963426;28;20027;-84
2022/11/05 01:39:20;;;;;;;14.52;7.90;;;6.90;99.90;;;;;;4949572;28;20501;-83
2022/11/05 01:41:46;;;;;;;14.20;8.40;;;6.60;99.90;;;;;;4968418;28;20034;-84
2022/11/05 01:44:48;;;;;;;14.20;8.05;;;6.70;99.90;;;;;;4942200;28;20034;-84
2022/11/05 01:47:30;;;;;;;13.40;6.85;;;6.60;99.90;;;;;;4963976;28;20399;-84
2022/11/05 01:49:57;;;;;;;14.18;9.15;;;6.60;99.90;;;;;;4948387;28;20035;-84
2022/11/05 01:52:23;;;;;;;11.15;7.75;;;6.60;99.90;;;;;;4965270;28;20054;-84
2022/11/05 01:54:48;;;;;;;12.60;8.55;;;6.80;99.90;;;;;;4937910;28;20035;-84
2022/11/05 01:57:14;;;;;;;10.82;6.97;;;6.80;99.90;;;;;;4951643;28;20078;-84
2022/11/05 01:59:45;;;;;;;10.38;6.75;;;6.80;99.90;;;;;;4964239;28;20035;-84
2022/11/05 02:02:10;;;;;;;14.70;7.82;;;6.80;99.90;;;;;;4962719;28;20049;-84
2022/11/05 02:04:43;;;;;;;11.57;7.18;;;6.80;99.90;;;;;;4945197;28;20038;-84
2022/11/05 02:07:09;;;;;;;12.90;7.28;;;6.80;99.90;;;;;;4929657;28;20030;-84
2022/11/05 02:09:47;;;;;;;12.18;8.20;;;6.80;99.90;;;;;;4931856;28;20348;-84
2022/11/05 02:12:13;;;;;;;16.23;9.77;;;6.80;99.90;;;;;;4978579;28;20039;-82
2022/11/05 02:14:39;;;;;;;14.25;7.45;;;6.70;99.90;;;;;;4951211;28;20757;-84
2022/11/05 02:17:08;;;;;;;11.75;8.02;;;6.60;99.90;;;;;;4962869;28;20020;-84
2022/11/05 02:20:08;;;;;;;12.50;7.63;;;6.70;99.90;;;;;;4958288;28;20402;-83
2022/11/05 02:23:00;;;;;;;14.88;8.30;;;6.70;99.90;;;;;;4943813;28;20620;-84
2022/11/05 02:26:23;;;;;;;13.68;8.02;;;6.60;99.90;;;;;;4961158;28;20090;-82
2022/11/05 02:29:41;;;;;;;14.45;9.55;;;6.70;99.90;;;;;;4909127;29;20038;-84
2022/11/05 02:32:30;;;;;;;13.13;7.07;;;6.60;99.90;;;;;;4876133;29;20035;-84
2022/11/05 02:35:36;;;;;;;14.15;7.40;;;6.60;99.90;;;;;;4959743;28;20050;-83
2022/11/05 02:38:09;;;;;;;10.33;6.93;;;6.60;99.90;;;;;;4949118;28;20030;-85
2022/11/05 02:40:39;;;;;;;12.07;8.55;;;6.70;99.90;;;;;;4950402;28;20484;-82
2022/11/05 02:43:17;;;;;;;11.07;7.25;;;6.50;99.90;;;;;;4935153;28;20089;-83
2022/11/05 02:45:50;;;;;;;16.48;9.05;;;6.50;99.90;;;;;;4966399;28;20040;-83
2022/11/05 02:48:34;;;;;;;13.30;8.30;;;6.50;99.90;;;;;;4959122;28;20148;-83
2022/11/05 02:51:15;;;;;;;12.85;7.18;;;6.40;99.90;;;;;;4958098;28;20034;-83
2022/11/05 02:53:52;;;;;;;12.35;8.02;;;6.60;99.90;;;;;;4944888;28;20078;-82
2022/11/05 02:56:27;;;;;;;21.00;12.40;;;6.80;99.90;;;;;;4931760;28;20091;-83
2022/11/05 02:58:53;;;;;;;16.05;10.00;;;6.50;99.90;;;;;;4964874;28;20031;-83
2022/11/05 03:01:18;;;;;;;18.02;11.43;;;6.30;99.90;;;;;;4958357;28;20039;-84
2022/11/05 03:03:50;;;;;;;16.00;11.13;;;6.50;99.90;;;;;;4950218;28;20134;-84
2022/11/05 03:06:28;;;;;;;14.18;9.13;;;6.50;99.90;;;;;;4946916;28;20031;-83
2022/11/05 03:09:05;;;;;;;14.55;10.02;;;6.50;99.90;;;;;;4957008;28;20037;-84
2022/11/05 03:11:33;;;;;;;18.27;11.50;;;6.40;99.90;;;;;;4960476;28;20054;-83
2022/11/05 03:14:08;;;;;;;14.55;9.15;;;6.40;99.90;;;;;;4930614;28;20036;-83
2022/11/05 03:16:38;;;;;;;18.27;10.77;;;6.40;99.90;;;;;;4947242;28;20035;-79
2022/11/05 03:19:12;;;;;;;16.45;11.23;;;6.40;99.90;;;;;;4949830;28;20034;-77
2022/11/05 03:21:58;;;;;;;16.67;11.25;;;6.40;99.90;;;;;;4976595;28;20043;-78
2022/11/05 03:24:29;;;;;;;;;;;6.20;99.90;;;;;;4945826;28;20046;-78
2022/11/05 03:26:57;;;;;;;9.63;7.63;;;6.20;99.90;;;;;;4935594;28;20388;-79
2022/11/05 03:29:34;;;;;;;14.85;10.30;;;6.20;99.90;;;;;;4937076;28;20363;-78
2022/11/05 03:32:00;;;;;;;12.48;9.38;;;6.30;99.90;;;;;;4951975;28;20676;-78
2022/11/05 03:34:29;;;;;;;17.73;10.95;;;6.20;99.90;;;;;;4949979;28;20122;-79
2022/11/05 03:36:55;;;;;;;15.27;9.57;;;6.00;99.90;;;;;;4960505;28;20031;-78
2022/11/05 03:39:33;;;;;;;12.82;9.52;;;6.00;99.90;;;;;;4947788;28;20402;-78
2022/11/05 03:41:59;;;;;;;15.32;11.40;;;6.10;99.90;;;;;;4950705;28;20062;-78
2022/11/05 03:44:26;;;;;;;18.63;11.55;;;6.00;99.90;;;;;;4964155;28;20051;-77
2022/11/05 03:46:52;;;;;;;14.38;10.27;;;6.00;99.90;;;;;;4963768;28;20111;-78
2022/11/05 03:49:26;;;;;;;14.70;10.63;;;6.10;99.90;;;;;;4944283;28;20035;-78
2022/11/05 03:52:12;;;;;;;10.70;7.57;;;6.00;99.90;;;;;;4955749;28;20030;-78
2022/11/05 03:54:38;;;;;;;14.15;9.73;;;6.00;99.90;;;;;;4935553;28;20027;-78
2022/11/05 03:57:38;;;;;;;15.27;10.60;;;6.10;99.90;;;;;;4980461;28;20033;-78
2022/11/05 04:00:08;;;;;;;13.82;10.10;;;6.00;99.90;;;;;;4961242;28;20063;-78
2022/11/05 04:02:33;;;;;;;19.48;11.10;;;6.00;99.90;;;;;;4952292;28;20066;-78
2022/11/05 04:04:59;;;;;;;13.32;9.68;;;5.90;99.90;;;;;;4936207;28;20066;-79
2022/11/05 04:18:21;;;;;;;20.38;12.02;;;5.90;99.90;;;;;;4953376;28;20168;-78
2022/11/05 04:26:15;;;;;;;15.50;11.50;;;5.80;99.90;;;;;;4952059;28;20532;-78
2022/11/05 04:31:25;;;;;;;19.13;10.75;;;5.70;99.90;;;;;;4957081;28;20455;-78
2022/11/05 04:33:51;;;;;;;17.80;10.65;;;5.70;99.90;;;;;;4970046;28;20109;-78
2022/11/05 04:36:18;;;;;;;15.70;9.48;;;5.70;99.90;;;;;;4970510;28;20074;-78
2022/11/05 04:38:43;;;;;;;15.32;10.30;;;5.90;99.90;;;;;;4939842;28;20042;-78
2022/11/05 04:41:13;;;;;;;12.18;8.57;;;5.90;99.90;;;;;;4955133;28;20050;-78
2022/11/05 04:43:39;;;;;;;22.90;11.27;;;5.80;99.90;;;;;;4971184;28;20039;-79
2022/11/05 04:46:04;;;;;;;12.63;8.82;;;5.80;99.90;;;;;;4944322;28;20074;-78
2022/11/05 04:48:30;;;;;;;13.57;9.10;;;5.80;99.90;;;;;;4965220;28;20035;-78
2022/11/05 04:50:55;;;;;;;14.23;10.00;;;5.70;99.90;;;;;;4953811;28;20513;-78
2022/11/05 04:53:21;;;;;;;14.45;10.35;;;5.60;99.90;;;;;;4948292;28;20395;-78
2022/11/05 04:55:46;;;;;;;15.75;9.63;;;5.70;99.90;;;;;;4964728;28;20038;-79
2022/11/05 04:58:12;;;;;;;15.85;10.40;;;5.70;99.90;;;;;;4936569;28;20027;-78
2022/11/05 05:00:37;;;;;;;18.13;10.90;;;5.90;99.90;;;;;;4968622;28;20031;-78
2022/11/05 05:03:03;;;;;;;15.63;9.32;;;5.60;99.90;;;;;;4969632;28;20038;-78
2022/11/05 05:05:29;;;;;;;13.88;8.65;;;5.50;99.90;;;;;;4970734;28;20138;-79
2022/11/05 05:07:59;;;;;;;13.93;8.85;;;5.60;99.90;;;;;;4951353;28;20077;-78
2022/11/05 05:10:25;;;;;;;13.73;9.38;;;5.50;99.90;;;;;;4961377;28;20054;-78
2022/11/05 05:12:50;;;;;;;20.30;11.23;;;5.50;99.90;;;;;;4955020;28;20065;-78
2022/11/05 05:15:16;;;;;;;14.20;8.93;;;5.50;99.90;;;;;;4979100;28;20474;-78
2022/11/05 05:17:41;;;;;;;20.35;12.13;;;5.60;99.90;;;;;;4969737;28;20054;-78
2022/11/05 05:22:54;;;;;;;12.00;7.50;;;5.70;99.90;;;;;;4970256;28;20042;-78
2022/11/05 05:25:21;;;;;;;12.55;9.82;;;5.70;99.90;;;;;;4952555;28;20039;-78
2022/11/05 05:27:47;;;;;;;14.40;7.93;;;5.70;99.90;;;;;;4954208;28;20639;-78
2022/11/05 05:30:12;;;;;;;17.15;10.88;;;5.60;99.90;;;;;;4968178;28;20063;-78
2022/11/05 05:32:38;;;;;;;11.90;8.13;;;5.60;99.90;;;;;;4950131;28;20043;-78
2022/11/05 05:35:04;;;;;;;10.38;7.97;;;5.80;99.90;;;;;;4968500;28;20027;-79
2022/11/05 05:37:29;;;;;;;13.20;9.18;;;5.60;99.90;;;;;;4965784;28;20122;-79
2022/11/05 05:39:55;;;;;;;10.68;7.90;;;5.70;99.90;;;;;;4953739;28;20038;-78
2022/11/05 05:42:21;;;;;;;19.92;10.73;;;5.70;99.90;;;;;;4952116;28;20030;-79
2022/11/05 05:44:47;;;;;;;13.30;8.40;;;5.60;99.90;;;;;;4955853;28;20405;-79
2022/11/05 05:47:12;;;;;;;13.80;8.75;;;5.60;99.90;;;;;;4937795;28;20118;-78
2022/11/05 05:49:38;;;;;;;22.30;12.68;;;5.60;99.90;;;;;;4969902;28;20122;-78
2022/11/05 05:52:05;;;;;;;16.88;10.82;;;5.50;99.90;;;;;;4963015;28;20035;-78
2022/11/05 05:54:30;;;;;;;21.10;12.30;;;5.50;99.90;;;;;;4958706;28;20453;-78
2022/11/05 05:56:56;;;;;;;15.00;9.52;;;5.50;99.90;;;;;;4945110;28;20105;-78
2022/11/05 05:59:23;;;;;;;12.70;8.15;;;5.60;99.90;;;;;;4936456;28;20034;-77
2022/11/05 06:01:49;;;;;;;22.33;11.18;;;5.60;99.90;;;;;;4930036;28;20027;-77
2022/11/05 06:04:15;;;;;;;18.02;10.80;;;5.60;99.90;;;;;;4943339;28;20046;-78
2022/11/05 06:06:40;;;;;;;15.18;9.93;;;5.40;99.90;;;;;;4964540;28;20054;-78
2022/11/05 06:09:06;;;;;;;16.67;10.55;;;5.50;99.90;;;;;;4959508;28;20042;-78
2022/11/05 06:11:32;;;;;;;13.30;8.85;;;5.40;99.90;;;;;;4949994;28;20027;-78
2022/11/05 06:13:57;;;;;;;26.83;16.17;;;5.50;99.90;;;;;;4947962;28;20054;-77
2022/11/05 06:16:34;;;;;;;22.30;13.85;;;5.30;99.90;;;;;;4952880;28;20065;-78
2022/11/05 06:19:01;;;;;;;18.67;11.55;;;5.40;99.90;;;;;;4950477;28;20038;-78
2022/11/05 06:21:26;;;;;;;18.45;10.90;;;5.40;99.90;;;;;;4965027;28;20038;-78
2022/11/05 06:23:53;;;;;;;16.10;11.55;;;5.50;99.90;;;;;;4947527;28;20035;-78
2022/11/05 06:26:18;;;;;;;18.73;12.55;;;5.50;99.90;;;;;;4947439;28;20038;-78
2022/11/05 06:28:45;;;;;;;21.42;11.15;;;5.60;99.90;;;;;;4985501;28;20026;-78
2022/11/05 06:31:12;;;;;;;18.05;11.55;;;5.60;99.90;;;;;;4961619;28;20117;-79
2022/11/05 06:33:38;;;;;;;20.42;12.82;;;5.70;99.90;;;;;;4959476;28;20118;-78
2022/11/05 06:36:13;;;;;;;19.25;12.88;;;5.70;99.90;;;;;;4961129;28;20557;-78
2022/11/05 06:38:39;;;;;;;24.02;15.48;;;5.50;99.90;;;;;;4975966;28;20063;-78
2022/11/05 06:41:05;;;;;;;19.65;12.98;;;5.60;99.90;;;;;;4954365;28;20058;-78
2022/11/05 06:43:31;;;;;;;29.08;15.88;;;5.50;99.90;;;;;;4964984;28;20041;-79
2022/11/05 06:45:56;;;;;;;21.52;13.50;;;5.40;99.90;;;;;;4965056;28;20031;-78
2022/11/05 06:48:24;;;;;;;22.52;12.57;;;5.40;99.90;;;;;;4933985;28;20454;-78
2022/11/05 06:50:49;;;;;;;19.88;12.05;;;5.40;99.90;;;;;;4968150;28;20046;-78
2022/11/05 06:53:15;;;;;;;20.55;12.95;;;5.50;99.90;;;;;;4950017;28;20090;-78
2022/11/05 06:55:43;;;;;;;28.27;15.23;;;5.50;99.90;;;;;;4958449;28;20055;-78
2022/11/05 06:58:10;;;;;;;19.13;11.80;;;5.60;99.90;;;;;;4965965;28;20034;-79
2022/11/05 07:00:35;;;;;;;20.95;13.70;;;5.60;99.90;;;;;;4962495;28;20569;-80
2022/11/05 07:03:08;;;;;;;27.10;17.05;;;5.60;99.90;;;;;;4931751;28;20042;-79
2022/11/05 07:05:35;;;;;;;25.02;15.13;;;5.50;99.90;;;;;;4947097;28;20450;-79
2022/11/05 07:08:01;;;;;;;25.73;17.75;;;5.70;99.90;;;;;;4950555;28;20026;-79
2022/11/05 07:10:27;;;;;;;27.05;18.58;;;5.30;99.90;;;;;;4917300;28;20379;-79
2022/11/05 07:12:52;;;;;;;26.70;18.88;;;5.30;99.90;;;;;;4958245;28;20102;-79
2022/11/05 07:15:18;;;;;;;30.98;19.55;;;5.20;99.90;;;;;;4943172;28;20063;-78
2022/11/05 07:17:43;;;;;;;34.05;19.98;;;5.30;99.90;;;;;;4942066;28;20039;-79
2022/11/05 07:20:09;;;;;;;25.80;16.33;;;5.30;99.90;;;;;;4934434;28;20030;-80
2022/11/05 07:22:35;;;;;;;27.92;17.42;;;5.30;99.90;;;;;;4942578;28;20126;-79
2022/11/05 07:25:00;;;;;;;30.13;17.38;;;5.40;99.90;;;;;;4945032;28;20106;-79
2022/11/05 07:27:26;;;;;;;25.00;16.00;;;5.60;99.90;;;;;;4944466;28;20035;-79
2022/11/05 07:29:51;;;;;;;20.70;13.73;;;5.70;99.90;;;;;;4963419;28;20556;-79
2022/11/05 07:32:17;;;;;;;21.00;13.63;;;5.80;99.90;;;;;;4964952;28;20035;-79
2022/11/05 07:34:43;;;;;;;25.25;15.02;;;5.90;99.90;;;;;;4963432;28;20028;-78
2022/11/05 07:37:08;;;;;;;20.00;12.18;;;5.80;99.90;;;;;;4957915;28;20085;-79
2022/11/05 07:39:34;;;;;;;20.75;13.25;;;5.90;99.90;;;;;;4946420;28;20035;-79
2022/11/05 07:41:59;;;;;;;24.88;16.45;;;6.00;99.90;;;;;;4936390;28;20177;-79
2022/11/05 07:44:25;;;;;;;24.48;11.15;;;6.10;99.90;;;;;;4934293;28;20137;-78
2022/11/05 07:46:50;;;;;;;21.88;12.70;;;6.30;99.90;;;;;;4960130;28;20109;-79
2022/11/05 07:49:17;;;;;;;20.17;11.85;;;6.40;99.90;;;;;;4933756;28;20482;-79
2022/11/05 07:51:42;;;;;;;19.48;11.10;;;6.50;99.90;;;;;;4952476;28;20034;-79
2022/11/05 07:54:08;;;;;;;22.77;12.98;;;6.60;99.90;;;;;;4958993;28;20467;-78
2022/11/05 07:56:33;;;;;;;32.38;15.13;;;6.70;99.90;;;;;;4944987;28;20032;-79
2022/11/05 07:58:59;;;;;;;23.10;13.40;;;6.80;99.90;;;;;;4950647;28;20026;-79
2022/11/05 08:01:26;;;;;;;19.30;12.25;;;6.80;99.90;;;;;;4949987;28;20508;-79
2022/11/05 08:03:51;;;;;;;14.27;8.88;;;7.00;99.90;;;;;;4963462;28;20086;-79
2022/11/05 08:06:17;;;;;;;16.17;11.15;;;7.10;99.90;;;;;;4952104;28;20442;-79
2022/11/05 08:08:44;;;;;;;22.15;11.75;;;7.20;99.90;;;;;;4977912;28;20462;-79
2022/11/05 08:11:11;;;;;;;19.60;12.30;;;7.30;99.90;;;;;;4966408;28;20062;-79
2022/11/05 08:13:36;;;;;;;21.70;11.50;;;7.30;99.90;;;;;;4954835;28;20038;-79
2022/11/05 08:16:02;;;;;;;19.25;8.27;;;7.30;99.90;;;;;;4931669;28;20035;-80
2022/11/05 08:18:31;;;;;;;15.70;8.75;;;7.50;99.90;;;;;;4948012;28;20460;-80
2022/11/05 08:21:01;;;;;;;15.23;9.80;;;7.60;99.90;;;;;;4977330;28;20034;-79
2022/11/05 08:23:27;;;;;;;19.30;11.00;;;7.70;99.90;;;;;;4948163;28;20041;-79
2022/11/05 08:25:53;;;;;;;14.10;5.95;;;7.80;99.90;;;;;;4964021;28;20038;-79
2022/11/05 08:28:20;;;;;;;20.33;11.45;;;7.80;99.90;;;;;;4947658;28;20035;-82
2022/11/05 08:30:49;;;;;;;20.45;11.73;;;7.90;99.90;;;;;;4961002;28;20027;-81
2022/11/05 08:33:15;;;;;;;15.80;6.25;;;8.10;99.90;;;;;;4916508;28;20087;-81
2022/11/05 08:35:41;;;;;;;17.83;9.82;;;8.20;99.90;;;;;;4937057;28;20038;-82
2022/11/05 08:38:08;;;;;;;6.47;4.75;;;8.30;99.90;;;;;;4947648;28;20496;-82
2022/11/05 08:40:34;;;;;;;19.60;11.25;;;8.40;99.90;;;;;;4953420;28;20043;-82
2022/11/05 08:43:04;;;;;;;20.85;10.57;;;8.40;99.90;;;;;;4933932;28;20046;-82
2022/11/05 08:45:29;;;;;;;9.63;6.07;;;8.50;99.90;;;;;;4945670;28;20032;-80
2022/11/05 08:48:02;;;;;;;18.60;8.07;;;8.70;99.90;;;;;;4949336;28;20038;-81
2022/11/05 08:50:27;;;;;;;8.57;5.55;;;8.70;99.90;;;;;;4964268;28;20473;-82
2022/11/05 08:52:53;;;;;;;11.63;8.32;;;8.90;99.90;;;;;;4964800;28;20039;-82
2022/11/05 08:55:18;;;;;;;11.27;7.43;;;8.90;99.90;;;;;;4947919;28;20402;-82
2022/11/05 08:57:47;;;;;;;16.35;8.43;;;9.00;99.90;;;;;;4952858;28;20092;-82
2022/11/05 09:00:13;;;;;;;17.25;9.68;;;9.10;99.90;;;;;;4967866;28;20499;-81
2022/11/05 09:02:39;;;;;;;14.13;7.15;;;9.10;99.90;;;;;;4980527;28;20096;-82
2022/11/05 09:05:05;;;;;;;8.63;3.92;;;9.30;99.90;;;;;;4932063;28;20039;-82
2022/11/05 09:07:31;;;;;;;12.00;5.95;;;9.40;99.90;;;;;;4966914;28;20033;-81
2022/11/05 09:09:56;;;;;;;10.98;4.90;;;9.60;99.90;;;;;;4939858;28;20394;-81
2022/11/05 09:12:22;;;;;;;11.25;5.13;;;9.70;99.90;;;;;;4949918;28;20053;-81
2022/11/05 09:14:48;;;;;;;13.75;7.53;;;9.70;99.90;;;;;;4939932;28;20055;-82
2022/11/05 09:17:17;;;;;;;20.80;7.75;;;9.70;99.90;;;;;;4963476;28;20023;-82
2022/11/05 09:19:43;;;;;;;8.75;4.50;;;9.60;99.90;;;;;;4951891;28;20078;-82
2022/11/05 09:22:11;;;;;;;8.50;5.07;;;10.00;99.90;;;;;;4949348;28;20304;-82
2022/11/05 09:24:37;;;;;;;12.20;6.00;;;10.10;99.90;;;;;;4955883;28;20039;-81
2022/11/05 09:27:03;;;;;;;11.95;5.60;;;10.20;99.90;;;;;;4954085;28;20053;-81
2022/11/05 09:29:28;;;;;;;12.82;8.15;;;10.20;99.90;;;;;;4951778;28;20063;-81
2022/11/05 09:31:54;;;;;;;10.07;6.82;;;10.10;99.90;;;;;;4936992;28;20058;-81
2022/11/05 09:34:20;;;;;;;9.63;6.55;;;10.30;99.90;;;;;;4935084;28;20038;-82
2022/11/05 09:36:45;;;;;;;16.25;7.68;;;10.30;99.90;;;;;;4966554;28;20454;-82
2022/11/05 09:39:11;;;;;;;14.23;6.88;;;10.40;99.90;;;;;;4949869;28;20904;-83
2022/11/05 09:41:37;;;;;;;9.43;6.05;;;10.40;99.90;;;;;;4952865;28;20695;-82
2022/11/05 09:44:20;;;;;;;14.00;6.57;;;10.80;99.90;;;;;;4944387;28;20572;-82
2022/11/05 09:46:54;;;;;;;12.40;7.03;;;11.00;99.90;;;;;;4973752;28;20053;-82
2022/11/05 09:49:40;;;;;;;8.15;5.28;;;11.00;99.90;;;;;;4947132;28;20031;-83
2022/11/05 09:52:12;;;;;;;10.05;6.30;;;11.20;99.90;;;;;;4931376;28;20023;-82
2022/11/05 09:54:40;;;;;;;14.43;6.80;;;11.20;99.90;;;;;;4944870;28;20523;-81
2022/11/05 09:57:12;;;;;;;14.88;5.70;;;11.10;99.90;;;;;;4935513;28;20023;-82
2022/11/05 09:59:41;;;;;;;15.45;7.53;;;11.20;99.90;;;;;;4948169;28;20035;-82
2022/11/05 10:02:33;;;;;;;13.40;8.07;;;11.50;99.90;;;;;;4929619;28;20023;-82
2022/11/05 10:05:03;;;;;;;15.52;7.57;;;11.30;99.90;;;;;;4930502;28;20045;-82
2022/11/05 10:07:30;;;;;;;12.57;6.18;;;11.20;99.90;;;;;;4947014;28;20422;-82
2022/11/05 10:10:04;;;;;;;8.52;4.55;;;11.50;99.90;;;;;;4960245;28;20058;-82
2022/11/05 10:12:35;;;;;;;10.73;5.30;;;11.60;99.90;;;;;;4946753;28;20066;-82
2022/11/05 10:15:11;;;;;;;12.25;6.50;;;11.30;99.90;;;;;;4948838;28;20033;-81
2022/11/05 10:17:37;;;;;;;12.23;4.90;;;11.70;99.90;;;;;;4947922;28;20042;-82
2022/11/05 10:20:14;;;;;;;4.85;3.05;;;12.10;99.90;;;;;;4936303;28;20501;-82
2022/11/05 10:22:39;;;;;;;7.78;4.22;;;12.30;99.90;;;;;;4950232;28;20042;-82
2022/11/05 10:25:15;;;;;;;10.80;6.18;;;12.70;99.90;;;;;;4929611;28;20054;-82
2022/11/05 10:27:40;;;;;;;;;;;12.70;99.90;;;;;;4935127;28;20030;-81
2022/11/05 10:30:08;;;;;;;10.70;6.00;;;13.00;99.90;;;;;;4945123;28;19910;-81
2022/11/05 10:32:38;;;;;;;10.52;5.97;;;13.10;99.90;;;;;;4948545;28;20032;-80
2022/11/05 10:35:06;;;;;;;10.15;4.95;;;13.00;99.90;;;;;;4933635;28;20031;-81
2022/11/05 10:37:32;;;;;;;8.23;4.53;;;13.10;99.90;;;;;;4949339;28;20149;-82
2022/11/05 10:39:58;;;;;;;11.07;6.25;;;13.10;99.90;;;;;;4949957;28;20117;-82
2022/11/05 10:42:50;;;;;;;13.50;5.80;;;13.10;99.90;;;;;;4966212;28;20076;-81
2022/11/05 10:45:32;;;;;;;10.05;6.32;;;13.10;99.90;;;;;;4941669;28;20075;-83
2022/11/05 10:48:04;;;;;;;12.05;5.72;;;13.00;99.90;;;;;;4960143;28;20031;-85
2022/11/05 10:50:29;;;;;;;10.32;5.28;;;13.30;99.90;;;;;;4942476;28;20035;-83
2022/11/05 10:53:19;;;;;;;13.43;6.38;;;13.30;99.90;;;;;;4935152;28;20367;-84
2022/11/05 10:55:50;;;;;;;12.18;5.85;;;13.40;99.90;;;;;;4951081;28;20038;-83
2022/11/05 10:58:15;;;;;;;12.40;5.60;;;13.40;99.90;;;;;;4958393;28;20213;-83
2022/11/05 11:00:53;;;;;;;8.65;4.70;;;13.30;99.90;;;;;;4964737;28;20115;-84
2022/11/05 11:03:35;;;;;;;10.45;3.78;;;13.20;99.90;;;;;;4948155;28;20038;-83
2022/11/05 11:06:11;;;;;;;9.93;5.15;;;13.30;99.90;;;;;;4945133;28;20039;-83
2022/11/05 11:08:37;;;;;;;10.13;5.78;;;13.30;99.90;;;;;;4948992;28;20421;-83
2022/11/05 11:11:06;;;;;;;9.38;4.82;;;13.50;99.90;;;;;;4961540;28;20059;-82
2022/11/05 11:13:50;;;;;;;11.80;5.18;;;13.60;99.90;;;;;;4961609;28;20058;-83
2022/11/05 11:16:21;;;;;;;13.60;6.57;;;13.50;99.90;;;;;;4943589;28;20501;-84
2022/11/05 11:19:02;;;;;;;9.57;5.10;;;13.60;99.90;;;;;;4949096;28;20518;-84
2022/11/05 11:21:28;;;;;;;10.75;4.72;;;13.70;99.90;;;;;;4931301;28;20027;-84
2022/11/05 11:23:55;;;;;;;11.02;5.72;;;13.80;99.90;;;;;;4955173;28;20779;-84
2022/11/05 11:26:22;;;;;;;11.10;5.15;;;13.80;99.90;;;;;;4931057;28;20970;-84
2022/11/05 11:28:57;;;;;;;8.52;4.70;;;13.80;99.90;;;;;;4966546;28;20110;-83
2022/11/05 11:31:24;;;;;;;8.00;5.05;;;13.70;99.90;;;;;;4965777;28;20451;-83
2022/11/05 11:34:04;;;;;;;11.10;5.35;;;13.70;99.90;;;;;;4966375;28;20042;-83
2022/11/05 11:36:35;;;;;;;8.38;4.47;;;13.80;99.90;;;;;;4939904;28;20720;-83
2022/11/05 11:39:03;;;;;;;5.90;2.85;;;13.80;99.90;;;;;;4946458;28;20035;-84
2022/11/05 11:41:37;;;;;;;5.60;3.28;;;14.00;99.90;;;;;;4975385;28;20035;-85
2022/11/05 11:44:09;;;;;;;7.78;4.40;;;14.10;99.90;;;;;;4978563;28;20546;-85
2022/11/05 11:46:34;;;;;;;11.32;5.43;;;14.10;99.90;;;;;;4976331;28;20035;-85
2022/11/05 11:49:00;;;;;;;8.68;4.53;;;14.00;99.90;;;;;;4949769;28;20165;-85
2022/11/05 11:51:39;;;;;;;7.00;3.85;;;14.10;99.90;;;;;;4947740;28;20040;-85
2022/11/05 11:54:05;;;;;;;13.93;6.63;;;14.00;99.90;;;;;;4936504;28;20493;-85
2022/11/05 11:56:42;;;;;;;12.80;6.40;;;14.10;99.90;;;;;;4933363;28;20057;-85
2022/11/05 11:59:34;;;;;;;15.82;6.50;;;14.00;99.90;;;;;;4936352;28;20027;-85
2022/11/05 12:02:20;;;;;;;10.07;4.72;;;13.90;99.90;;;;;;4922646;28;20057;-85
2022/11/05 12:05:26;;;;;;;11.90;4.63;;;13.80;99.90;;;;;;4948716;28;20047;-85
2022/11/05 12:07:53;;;;;;;8.02;3.67;;;13.90;99.90;;;;;;4939929;28;20034;-84
2022/11/05 12:11:07;;;;;;;16.33;5.72;;;13.90;99.90;;;;;;4950127;28;20035;-85
2022/11/05 12:14:03;;;;;;;11.70;4.13;;;13.90;99.90;;;;;;4913105;28;20414;-85
2022/11/05 12:16:56;;;;;;;9.25;4.70;;;13.90;99.90;;;;;;4952891;28;20031;-84
2022/11/05 12:19:27;;;;;;;7.95;4.13;;;13.90;99.90;;;;;;4956565;28;20614;-86
2022/11/05 12:22:02;;;;;;;12.05;5.32;;;13.80;99.90;;;;;;4966804;28;20030;-86
2022/11/05 12:24:50;;;;;;;7.38;4.53;;;13.70;99.90;;;;;;4946459;28;20035;-85
2022/11/05 12:27:39;;;;;;;12.98;4.55;;;13.60;99.90;;;;;;4963149;28;20122;-83
2022/11/05 12:30:16;;;;;;;10.05;5.35;;;13.70;99.90;;;;;;4950994;28;20035;-84
2022/11/05 12:32:53;;;;;;;9.23;4.05;;;13.70;99.90;;;;;;4950199;28;20031;-84
2022/11/05 12:35:28;;;;;;;12.73;5.82;;;13.60;99.90;;;;;;4930337;28;20507;-84
2022/11/05 12:37:59;;;;;;;7.35;5.13;;;13.60;99.90;;;;;;4955312;28;20034;-81
2022/11/05 12:40:37;;;;;;;11.82;5.03;;;13.70;99.90;;;;;;4945563;28;20078;-84
2022/11/05 12:43:18;;;;;;;5.80;4.75;;;13.70;99.90;;;;;;4953560;28;20034;-84
2022/11/05 12:46:20;;;;;;;8.68;3.90;;;13.70;99.90;;;;;;4954558;28;20436;-84
2022/11/05 12:49:05;;;;;;;9.57;4.93;;;13.70;99.90;;;;;;4965442;28;20031;-84
2022/11/05 12:51:48;;;;;;;8.15;3.92;;;13.70;99.90;;;;;;4268877;28;10000783;-82
2022/11/05 12:54:23;;;;;;;10.00;4.00;;;13.50;99.90;;;;;;4952410;28;20067;-84
2022/11/05 12:56:54;;;;;;;8.87;4.30;;;13.60;99.90;;;;;;3915527;28;10001006;-84
2022/11/05 12:59:36;;;;;;;6.15;3.97;;;13.70;99.90;;;;;;4945690;28;20027;-82
2022/11/05 13:02:28;;;;;;;8.05;3.60;;;13.70;99.90;;;;;;4946148;28;20019;-84
2022/11/05 13:04:57;;;;;;;6.40;3.78;;;13.70;99.90;;;;;;4942046;28;20501;-83
2022/11/05 13:07:34;;;;;;;8.55;3.40;;;13.70;99.90;;;;;;4984998;28;20045;-83
2022/11/05 13:10:25;;;;;;;6.68;3.38;;;13.70;99.90;;;;;;4908966;28;20553;-83
2022/11/05 13:13:04;;;;;;;7.85;3.08;;;13.70;99.90;;;;;;4964591;28;20038;-85
2022/11/05 13:15:35;;;;;;;6.03;2.80;;;13.60;99.90;;;;;;4946656;28;20620;-86
2022/11/05 13:18:05;;;;;;;3.63;1.77;;;13.60;99.90;;;;;;4951714;28;20030;-87
2022/11/05 13:20:36;;;;;;;7.55;2.90;;;13.70;99.90;;;;;;4947969;28;20155;-83
2022/11/05 13:23:11;;;;;;;5.28;3.30;;;13.70;99.90;;;;;;4957565;28;20066;-84
2022/11/05 13:25:39;;;;;;;3.42;2.13;;;13.60;99.90;;;;;;4952639;28;20087;-85
2022/11/05 13:28:16;;;;;;;3.00;1.58;;;13.60;99.90;;;;;;4967380;28;20023;-87
2022/11/05 13:30:47;;;;;;;4.97;2.22;;;13.50;99.90;;;;;;4961495;28;20038;-85
2022/11/05 13:33:20;;;;;;;4.75;2.30;;;13.50;99.90;;;;;;4950547;28;20035;-84
2022/11/05 13:38:57;;;;;;;5.63;2.38;;;13.40;99.90;;;;;;4937994;28;20035;-83
2022/11/05 13:41:26;;;;;;;4.00;2.60;;;13.40;99.90;;;;;;4953436;28;20034;-83
2022/11/05 13:44:21;;;;;;;4.57;2.25;;;13.30;99.90;;;;;;4967032;28;20556;-82
2022/11/05 13:47:07;;;;;;;5.22;2.03;;;13.20;99.90;;;;;;4969337;28;20039;-82
2022/11/05 13:50:04;;;;;;;10.43;2.08;;;13.10;99.90;;;;;;4950922;28;20113;-83
2022/11/05 13:52:36;;;;;;;;;;;13.10;99.90;;;;;;4967106;28;20435;-82